createdAt,value
2022-09-06T00:02:09.012Z,101312.02
2022-09-06T00:04:36.808Z,101308.02
2022-09-06T00:07:05.629Z,101304.91
2022-09-06T00:09:33.334Z,101307.55
2022-09-06T00:12:00.977Z,101311.73
2022-09-06T00:14:29.065Z,101315.12
2022-09-06T00:16:56.953Z,101316.41
2022-09-06T00:19:24.945Z,101319.19
2022-09-06T00:21:52.733Z,101320.51
2022-09-06T00:24:20.344Z,101319.11
2022-09-06T00:26:47.954Z,101318.42
2022-09-06T00:29:15.642Z,101313.33
2022-09-06T00:31:44.149Z,101312.54
2022-09-06T00:34:11.826Z,101313.09
2022-09-06T00:36:39.538Z,101315.06
2022-09-06T00:39:07.196Z,101314.14
2022-09-06T00:41:34.889Z,101311.31
2022-09-06T00:44:02.890Z,101311.45
2022-09-06T00:46:31.856Z,101310.80
2022-09-06T00:49:09.756Z,101313.40
2022-09-06T00:51:38.208Z,101309.84
2022-09-06T00:54:08.108Z,101314.77
2022-09-06T00:56:39.225Z,101314.23
2022-09-06T00:59:07.416Z,101317.70
2022-09-06T01:01:35.328Z,101319.06
2022-09-06T01:04:03.647Z,101315.36
2022-09-06T01:06:42.388Z,101311.70
2022-09-06T01:09:22.928Z,101308.02
2022-09-06T01:12:28.336Z,101308.46
2022-09-06T01:15:14.548Z,101304.27
2022-09-06T01:17:42.104Z,101303.08
2022-09-06T01:20:10.109Z,101302.80
2022-09-06T01:22:56.090Z,101306.75
2022-09-06T01:25:41.912Z,101303.09
2022-09-06T01:28:18.622Z,101306.33
2022-09-06T01:30:54.036Z,101313.21
2022-09-06T01:33:32.630Z,101310.30
2022-09-06T01:36:07.003Z,101309.73
2022-09-06T01:38:35.329Z,101309.51
2022-09-06T01:41:03.171Z,101307.02
2022-09-06T01:43:33.608Z,101310.61
2022-09-06T01:46:04.344Z,101311.21
2022-09-06T01:48:48.101Z,101309.48
2022-09-06T01:51:28.776Z,101310.46
2022-09-06T01:54:15.710Z,101309.81
2022-09-06T01:57:02.030Z,101311.02
2022-09-06T01:59:55.209Z,101312.19
2022-09-06T02:02:28.245Z,101309.45
2022-09-06T02:05:09.671Z,101307.95
2022-09-06T02:07:38.921Z,101308.44
2022-09-06T02:10:16.314Z,101311.27
2022-09-06T02:12:46.035Z,101314.09
2022-09-06T02:15:21.793Z,101311.39
2022-09-06T02:18:09.921Z,101310.99
2022-09-06T02:20:45.759Z,101310.25
2022-09-06T02:23:15.351Z,101310.20
2022-09-06T02:25:44.362Z,101314.34
2022-09-06T02:28:12.094Z,101309.89
2022-09-06T02:30:43.591Z,101321.52
2022-09-06T02:33:14.953Z,101317.61
2022-09-06T02:35:49.814Z,101317.73
2022-09-06T02:38:18.624Z,101317.11
2022-09-06T02:40:46.846Z,101318.30
2022-09-06T02:43:14.737Z,101315.05
2022-09-06T02:45:42.656Z,101313.41
2022-09-06T02:48:10.509Z,101311.08
2022-09-06T02:50:38.146Z,101311.38
2022-09-06T02:53:07.174Z,101309.59
2022-09-06T02:55:35.059Z,101310.27
2022-09-06T02:58:03.657Z,101307.98
2022-09-06T03:00:31.605Z,101302.79
2022-09-06T03:02:59.633Z,101297.79
2022-09-06T03:05:27.880Z,101299.45
2022-09-06T03:07:56.529Z,101302.41
2022-09-06T03:10:25.927Z,101298.27
2022-09-06T03:12:53.719Z,101298.98
2022-09-06T03:15:21.784Z,101297.71
2022-09-06T03:17:50.110Z,101300.48
2022-09-06T03:20:17.852Z,101302.29
2022-09-06T03:22:46.085Z,101306.25
2022-09-06T03:25:13.986Z,101306.52
2022-09-06T03:27:41.588Z,101310.40
2022-09-06T03:30:09.842Z,101308.78
2022-09-06T03:32:37.449Z,101309.80
2022-09-06T03:35:05.690Z,101309.93
2022-09-06T03:37:34.140Z,101310.96
2022-09-06T03:40:03.324Z,101305.43
2022-09-06T03:42:31.082Z,101306.04
2022-09-06T03:44:58.834Z,101308.34
2022-09-06T03:47:26.513Z,101306.48
2022-09-06T03:49:54.303Z,101307.77
2022-09-06T03:52:21.946Z,101310.94
2022-09-06T03:54:49.999Z,101310.61
2022-09-06T03:57:18.437Z,101309.55
2022-09-06T03:59:46.511Z,101307.60
2022-09-06T04:02:14.304Z,101305.61
2022-09-06T04:04:42.003Z,101301.59
2022-09-06T04:07:09.912Z,101299.17
2022-09-06T04:09:38.121Z,101296.13
2022-09-06T04:12:05.901Z,101293.72
2022-09-06T04:14:33.545Z,101292.88
2022-09-06T04:17:01.469Z,101292.10
2022-09-06T04:19:29.177Z,101289.20
2022-09-06T04:21:56.943Z,101293.67
2022-09-06T04:24:25.133Z,101295.52
2022-09-06T04:26:53.199Z,101294.08
2022-09-06T04:29:20.935Z,101295.98
2022-09-06T04:31:48.735Z,101299.48
2022-09-06T04:34:16.564Z,101297.84
2022-09-06T04:36:48.191Z,101302.91
2022-09-06T04:39:16.972Z,101301.02
2022-09-06T04:41:44.618Z,101300.20
2022-09-06T04:44:12.430Z,101300.93
2022-09-06T04:46:41.717Z,101299.48
2022-09-06T04:49:09.415Z,101298.02
2022-09-06T04:51:39.997Z,101302.99
2022-09-06T04:54:08.250Z,101300.19
2022-09-06T04:56:35.939Z,101302.68
2022-09-06T04:59:03.632Z,101296.84
2022-09-06T05:01:31.472Z,101298.33
2022-09-06T05:03:59.800Z,101297.02
2022-09-06T05:06:28.353Z,101292.12
2022-09-06T05:08:56.073Z,101294.08
2022-09-06T05:11:23.848Z,101294.10
2022-09-06T05:13:51.922Z,101296.10
2022-09-06T05:16:19.710Z,101289.33
2022-09-06T05:18:47.417Z,101287.15
2022-09-06T05:21:15.884Z,101292.60
2022-09-06T05:23:43.688Z,101289.20
2022-09-06T05:26:11.396Z,101285.43
2022-09-06T05:28:39.057Z,101280.73
2022-09-06T05:31:11.921Z,101286.71
2022-09-06T05:33:39.783Z,101287.67
2022-09-06T05:36:07.955Z,101282.60
2022-09-06T05:38:35.643Z,101282.45
2022-09-06T05:41:03.497Z,101287.61
2022-09-06T05:43:31.282Z,101291.70
2022-09-06T05:45:59.458Z,101289.42
2022-09-06T05:48:28.229Z,101287.70
2022-09-06T05:51:07.192Z,101283.42
2022-09-06T05:53:45.493Z,101275.84
2022-09-06T05:56:14.353Z,101272.05
2022-09-06T05:58:42.149Z,101274.23
2022-09-06T06:01:19.772Z,101269.16
2022-09-06T06:03:51.983Z,101276.58
2022-09-06T06:06:21.023Z,101278.70
2022-09-06T06:08:49.102Z,101276.34
2022-09-06T06:11:17.382Z,101278.27
2022-09-06T06:13:45.484Z,101280.83
2022-09-06T06:16:15.177Z,101282.06
2022-09-06T06:18:47.648Z,101279.73
2022-09-06T06:21:21.526Z,101280.32
2022-09-06T06:24:01.057Z,101288.17
2022-09-06T06:26:31.759Z,101286.33
2022-09-06T06:29:02.040Z,101282.95
2022-09-06T06:31:31.705Z,101282.05
2022-09-06T06:33:59.490Z,101279.27
2022-09-06T06:36:30.682Z,101283.79
2022-09-06T06:38:58.830Z,101289.88
2022-09-06T06:41:29.051Z,101291.31
2022-09-06T06:43:58.392Z,101286.80
2022-09-06T06:46:28.362Z,101294.77
2022-09-06T06:48:56.617Z,101292.66
2022-09-06T06:51:26.728Z,101292.20
2022-09-06T06:53:56.773Z,101288.42
2022-09-06T06:56:37.453Z,101283.59
2022-09-06T06:59:06.980Z,101290.14
2022-09-06T07:01:36.084Z,101294.73
2022-09-06T07:04:05.505Z,101300.95
2022-09-06T07:12:28.834Z,101303.64
2022-09-06T07:14:56.516Z,101300.64
2022-09-06T07:17:24.233Z,101298.60
2022-09-06T07:22:40.409Z,101297.61
2022-09-06T07:25:09.805Z,101291.13
2022-09-06T07:27:53.063Z,101292.95
2022-09-06T07:30:20.880Z,101292.56
2022-09-06T07:32:48.971Z,101288.31
2022-09-06T07:35:16.701Z,101294.80
2022-09-06T07:37:51.903Z,101292.34
2022-09-06T07:40:19.792Z,101291.69
2022-09-06T07:42:47.739Z,101289.32
2022-09-06T07:45:16.099Z,101294.08
2022-09-06T07:47:59.442Z,101294.55
2022-09-06T07:53:24.770Z,101299.13
2022-09-06T07:55:57.608Z,101297.71
2022-09-06T07:58:25.576Z,101298.87
2022-09-06T08:00:53.314Z,101300.22
2022-09-06T08:03:21.241Z,101298.17
2022-09-06T08:11:31.681Z,101304.09
2022-09-06T08:14:00.914Z,101302.21
2022-09-06T08:16:29.327Z,101300.11
2022-09-06T08:18:58.782Z,101298.03
2022-09-06T08:21:28.664Z,101297.64
2022-09-06T08:23:58.360Z,101293.48
2022-09-06T08:26:27.216Z,101291.76
2022-09-06T08:29:00.111Z,101289.77
2022-09-06T08:31:29.521Z,101294.83
2022-09-06T08:33:58.140Z,101287.54
2022-09-06T08:36:32.363Z,101283.05
2022-09-06T08:39:01.545Z,101289.33
2022-09-06T08:41:44.775Z,101281.99
2022-09-06T08:44:57.006Z,101280.36
2022-09-06T08:47:25.553Z,101286.05
2022-09-06T08:49:57.677Z,101278.02
2022-09-06T08:52:54.438Z,101275.45
2022-09-06T08:55:37.876Z,101272.79
2022-09-06T08:58:43.165Z,101269.10
2022-09-06T09:01:25.404Z,101263.44
2022-09-06T09:03:56.305Z,101263.47
2022-09-06T09:06:24.822Z,101259.02
2022-09-06T09:08:53.251Z,101253.64
2022-09-06T09:11:21.867Z,101245.12
2022-09-06T09:14:11.570Z,101244.58
2022-09-06T09:16:40.014Z,101244.38
2022-09-06T09:19:09.345Z,101246.69
2022-09-06T09:21:38.348Z,101238.54
2022-09-06T09:24:15.982Z,101238.70
2022-09-06T09:26:53.758Z,101231.42
2022-09-06T09:29:26.707Z,101238.66
2022-09-06T09:31:56.020Z,101236.96
2022-09-06T09:34:50.994Z,101234.23
2022-09-06T09:40:33.478Z,101229.75
2022-09-06T09:43:22.066Z,101228.76
2022-09-06T09:46:15.611Z,101222.77
2022-09-06T09:49:04.685Z,101218.71
2022-09-06T09:51:43.909Z,101219.16
2022-09-06T09:54:13.940Z,101213.23
2022-09-06T09:56:44.338Z,101207.65
2022-09-06T09:59:33.198Z,101205.96
2022-09-06T10:02:03.068Z,101201.06
2022-09-06T10:04:48.994Z,101194.77
2022-09-06T10:07:19.711Z,101192.05
2022-09-06T10:09:49.359Z,101184.16
2022-09-06T10:12:19.470Z,101188.09
2022-09-06T10:14:49.272Z,101184.12
2022-09-06T10:17:24.260Z,101183.39
2022-09-06T10:19:51.907Z,101181.86
2022-09-06T10:22:31.330Z,101178.67
2022-09-06T10:25:06.764Z,101171.02
2022-09-06T10:27:35.916Z,101170.87
2022-09-06T10:30:06.737Z,101169.17
2022-09-06T10:32:42.905Z,101166.66
2022-09-06T10:35:37.396Z,101161.95
2022-09-06T10:38:32.883Z,101160.34
2022-09-06T10:41:09.507Z,101153.89
2022-09-06T10:43:45.578Z,101154.94
2022-09-06T10:46:16.414Z,101153.91
2022-09-06T10:48:47.392Z,101147.98
2022-09-06T10:51:34.566Z,101142.39
2022-09-06T10:54:08.555Z,101138.91
2022-09-06T10:56:36.867Z,101136.89
2022-09-06T10:59:40.014Z,101136.27
2022-09-06T11:02:32.777Z,101125.58
2022-09-06T11:10:48.183Z,101115.39
2022-09-06T11:13:20.424Z,101115.90
2022-09-06T11:16:20.497Z,101114.88
2022-09-06T11:19:02.178Z,101114.06
2022-09-06T11:22:12.152Z,101112.40
2022-09-06T11:25:06.155Z,101114.32
2022-09-06T11:27:36.794Z,101103.21
2022-09-06T11:30:06.839Z,101105.40
2022-09-06T11:32:48.873Z,101100.05
2022-09-06T11:35:28.612Z,101089.61
2022-09-06T11:38:19.340Z,101091.65
2022-09-06T11:40:49.286Z,101091.50
2022-09-06T11:43:41.538Z,101086.20
2022-09-06T11:46:09.407Z,101087.70
2022-09-06T11:48:45.085Z,101081.59
2022-09-06T11:51:31.250Z,101086.55
2022-09-06T11:53:59.203Z,101087.75
2022-09-06T11:56:31.324Z,101083.16
2022-09-06T11:59:08.292Z,101079.29
2022-09-06T12:01:37.301Z,101072.98
2022-09-06T12:04:07.345Z,101073.85
2022-09-06T12:06:42.872Z,101067.18
2022-09-06T12:09:30.504Z,101067.96
2022-09-06T12:11:59.063Z,101061.94
2022-09-06T12:14:49.196Z,101067.55
2022-09-06T12:17:20.812Z,101066.27
2022-09-06T12:19:56.079Z,101069.82
2022-09-06T12:22:26.805Z,101069.49
2022-09-06T12:24:57.104Z,101064.36
2022-09-06T12:27:29.675Z,101061.92
2022-09-06T12:29:59.805Z,101053.61
2022-09-06T12:32:36.213Z,101051.96
2022-09-06T12:38:15.899Z,101051.92
2022-09-06T12:40:48.685Z,101053.09
2022-09-06T12:43:17.853Z,101045.59
2022-09-06T12:45:47.315Z,101043.45
2022-09-06T12:48:33.655Z,101047.31
2022-09-06T12:51:03.480Z,101043.53
2022-09-06T12:53:32.099Z,101038.91
2022-09-06T12:56:08.785Z,101037.41
2022-09-06T12:58:37.671Z,101031.16
2022-09-06T13:01:23.125Z,101034.75
2022-09-06T13:04:02.853Z,101033.99
2022-09-06T13:06:36.516Z,101035.69
2022-09-06T13:09:05.676Z,101031.70
2022-09-06T13:11:36.839Z,101033.48
2022-09-06T13:14:18.607Z,101036.35
2022-09-06T13:16:48.755Z,101037.39
2022-09-06T13:19:31.898Z,101042.29
2022-09-06T13:22:00.426Z,101037.77
2022-09-06T13:24:46.910Z,101034.86
2022-09-06T13:27:35.787Z,101033.65
2022-09-06T13:30:06.959Z,101031.90
2022-09-06T13:32:36.356Z,101033.63
2022-09-06T13:35:04.936Z,101030.62
2022-09-06T13:37:35.618Z,101030.91
2022-09-06T13:41:08.994Z,101026.52
2022-09-06T13:43:33.413Z,101026.86
2022-09-06T13:46:09.960Z,101026.24
2022-09-06T13:48:39.581Z,101026.40
2022-09-06T13:51:08.234Z,101024.50
2022-09-06T13:53:36.407Z,101021.80
2022-09-06T13:56:05.058Z,101019.11
2022-09-06T13:58:33.183Z,101020.86
2022-09-06T14:01:01.502Z,101012.41
2022-09-06T14:03:31.782Z,101011.52
2022-09-06T14:06:00.405Z,101014.98
2022-09-06T14:08:43.866Z,101011.76
2022-09-06T14:11:17.588Z,101003.48
2022-09-06T14:13:45.397Z,101002.56
2022-09-06T14:16:13.457Z,100998.95
2022-09-06T14:18:41.511Z,100997.43
2022-09-06T14:21:09.372Z,101000.27
2022-09-06T14:23:37.169Z,100996.81
2022-09-06T14:26:05.931Z,101000.67
2022-09-06T14:28:34.097Z,101001.74
2022-09-06T14:31:36.916Z,100997.81
2022-09-06T14:34:04.570Z,100997.77
2022-09-06T14:36:34.619Z,100990.40
2022-09-06T14:39:02.372Z,100987.43
2022-09-06T14:41:30.379Z,100985.88
2022-09-06T14:43:59.405Z,100987.95
2022-09-06T14:46:28.029Z,100988.02
2022-09-06T14:48:58.379Z,100980.95
2022-09-06T14:51:26.285Z,100980.14
2022-09-06T14:54:00.395Z,100976.47
2022-09-06T14:56:28.193Z,100977.77
2022-09-06T14:58:57.498Z,100977.38
2022-09-06T15:01:28.616Z,100978.36
2022-09-06T15:03:58.769Z,100966.42
2022-09-06T15:06:27.615Z,100959.84
2022-09-06T15:08:59.365Z,100958.25
2022-09-06T15:11:35.375Z,100950.71
2022-09-06T15:14:05.130Z,100950.09
2022-09-06T15:16:33.252Z,100947.84
2022-09-06T15:19:02.875Z,100948.86
2022-09-06T15:21:31.705Z,100948.85
2022-09-06T15:24:00.817Z,100946.11
2022-09-06T15:26:29.393Z,100948.46
2022-09-06T15:28:57.447Z,100946.65
2022-09-06T15:31:25.482Z,100947.39
2022-09-06T15:33:53.886Z,100943.60
2022-09-06T15:36:22.061Z,100942.85
2022-09-06T15:38:52.229Z,100939.05
2022-09-06T15:41:25.206Z,100935.86
2022-09-06T15:43:56.718Z,100932.63
2022-09-06T15:46:34.938Z,100932.30
2022-09-06T15:49:06.544Z,100932.08
2022-09-06T15:51:35.371Z,100930.25
2022-09-06T15:54:03.356Z,100928.46
2022-09-06T15:56:31.113Z,100928.85
2022-09-06T15:58:59.005Z,100928.90
2022-09-06T16:01:27.058Z,100925.89
2022-09-06T16:04:05.551Z,100923.44
2022-09-06T16:06:37.158Z,100919.83
2022-09-06T16:09:08.106Z,100920.90
2022-09-06T16:11:37.094Z,100918.75
2022-09-06T16:14:06.667Z,100918.75
2022-09-06T16:16:35.904Z,100919.83
2022-09-06T16:19:04.373Z,100918.64
2022-09-06T16:21:33.672Z,100918.95
2022-09-06T16:24:02.914Z,100913.63
2022-09-06T16:26:37.711Z,100913.43
2022-09-06T16:29:07.917Z,100913.79
2022-09-06T16:31:40.104Z,100910.91
2022-09-06T16:34:09.752Z,100914.23
2022-09-06T16:36:38.280Z,100917.35
2022-09-06T16:39:08.019Z,100917.37
2022-09-06T16:41:41.171Z,100917.10
2022-09-06T16:44:14.447Z,100916.63
2022-09-06T16:46:43.800Z,100919.61
2022-09-06T16:49:11.579Z,100926.28
2022-09-06T16:51:39.406Z,100924.85
2022-09-06T16:54:07.212Z,100922.02
2022-09-06T16:56:36.058Z,100929.77
2022-09-06T16:59:06.836Z,100923.71
2022-09-06T17:01:36.263Z,100924.65
2022-09-06T17:04:05.527Z,100925.06
2022-09-06T17:06:38.366Z,100929.36
2022-09-06T17:09:06.217Z,100928.23
2022-09-06T17:11:34.538Z,100929.80
2022-09-06T17:14:02.332Z,100923.82
2022-09-06T17:16:49.083Z,100925.80
2022-09-06T17:19:18.124Z,100926.48
2022-09-06T17:21:47.768Z,100924.73
2022-09-06T17:24:15.721Z,100927.34
2022-09-06T17:26:43.644Z,100926.30
2022-09-06T17:29:11.789Z,100925.38
2022-09-06T17:31:39.902Z,100929.48
2022-09-06T17:34:07.843Z,100931.20
2022-09-06T17:36:36.501Z,100936.90
2022-09-06T17:39:07.729Z,100938.94
2022-09-06T17:41:36.548Z,100940.17
2022-09-06T17:44:06.870Z,100942.27
2022-09-06T17:46:34.705Z,100941.95
2022-09-06T17:49:03.284Z,100940.08
2022-09-06T17:51:32.789Z,100941.38
2022-09-06T17:54:00.693Z,100942.02
2022-09-06T17:56:30.333Z,100948.20
2022-09-06T17:58:59.416Z,100952.51
2022-09-06T18:01:30.962Z,100951.15
2022-09-06T18:03:59.637Z,100951.13
2022-09-06T18:06:28.859Z,100949.94
2022-09-06T18:08:59.849Z,100949.98
2022-09-06T18:11:30.057Z,100954.38
2022-09-06T18:14:02.124Z,100952.27
2022-09-06T18:16:30.728Z,100952.72
2022-09-06T18:19:00.817Z,100953.30
2022-09-06T18:21:31.027Z,100952.52
2022-09-06T18:23:59.054Z,100952.66
2022-09-06T18:26:27.288Z,100956.61
2022-09-06T18:28:55.396Z,100956.84
2022-09-06T18:31:25.115Z,100958.79
2022-09-06T18:33:56.317Z,100959.13
2022-09-06T18:36:27.526Z,100959.20
2022-09-06T18:38:57.809Z,100957.58
2022-09-06T18:41:43.981Z,100963.20
2022-09-06T18:44:11.711Z,100963.33
2022-09-06T18:46:39.526Z,100969.64
2022-09-06T18:49:07.390Z,100972.23
2022-09-06T18:51:35.486Z,100970.73
2022-09-06T18:54:03.333Z,100973.19
2022-09-06T18:56:31.373Z,100969.13
2022-09-06T18:59:00.666Z,100965.75
2022-09-06T19:01:29.968Z,100967.45
2022-09-06T19:03:58.505Z,100965.66
2022-09-06T19:06:28.154Z,100965.70
2022-09-06T19:09:00.948Z,100964.91
2022-09-06T19:11:29.369Z,100962.98
2022-09-06T19:13:58.350Z,100964.28
2022-09-06T19:16:27.807Z,100966.02
2022-09-06T19:18:56.923Z,100967.23
2022-09-06T19:21:25.578Z,100963.69
2022-09-06T19:23:59.459Z,100965.66
2022-09-06T19:26:30.875Z,100966.02
2022-09-06T19:29:04.804Z,100966.90
2022-09-06T19:31:34.872Z,100966.70
2022-09-06T19:34:04.029Z,100969.05
2022-09-06T19:36:32.288Z,100971.20
2022-09-06T19:39:08.293Z,100968.90
2022-09-06T19:41:39.955Z,100967.21
2022-09-06T19:44:09.041Z,100970.14
2022-09-06T19:46:37.661Z,100962.58
2022-09-06T19:49:08.146Z,100964.99
2022-09-06T19:51:36.872Z,100962.92
2022-09-06T19:54:05.437Z,100963.70
2022-09-06T19:56:35.137Z,100962.77
2022-09-06T19:59:08.809Z,100963.24
2022-09-06T20:01:38.086Z,100962.11
2022-09-06T20:04:08.253Z,100957.71
2022-09-06T20:06:36.640Z,100955.67
2022-09-06T20:09:06.715Z,100955.48
2022-09-06T20:11:36.002Z,100953.17
2022-09-06T20:14:04.084Z,100954.95
2022-09-06T20:16:32.553Z,100956.91
2022-09-06T20:19:00.705Z,100959.05
2022-09-06T20:21:29.720Z,100961.65
2022-09-06T20:23:59.383Z,100963.45
2022-09-06T20:26:28.333Z,100960.55
2022-09-06T20:29:01.626Z,100956.77
2022-09-06T20:31:31.127Z,100957.30
2022-09-06T20:34:00.681Z,100954.12
2022-09-06T20:36:30.156Z,100954.88
2022-09-06T20:38:57.941Z,100956.16
2022-09-06T20:41:27.280Z,100956.46
2022-09-06T20:43:56.146Z,100954.52
2022-09-06T20:46:26.640Z,100948.95
2022-09-06T20:48:57.566Z,100947.46
2022-09-06T20:51:26.040Z,100949.39
2022-09-06T20:53:55.905Z,100948.44
2022-09-06T20:56:33.625Z,100951.17
2022-09-06T20:59:03.284Z,100949.68
2022-09-06T21:01:34.368Z,100945.89
2022-09-06T21:04:04.120Z,100944.30
2022-09-06T21:06:34.418Z,100946.88
2022-09-06T21:09:08.337Z,100947.13
2022-09-06T21:11:36.393Z,100947.08
2022-09-06T21:14:05.664Z,100951.66
2022-09-06T21:16:34.020Z,100952.64
2022-09-06T21:19:05.203Z,100955.04
2022-09-06T21:21:34.618Z,100951.73
2022-09-06T21:24:04.838Z,100949.22
2022-09-06T21:26:32.789Z,100947.95
2022-09-06T21:29:00.481Z,100949.09
2022-09-06T21:31:33.073Z,100946.15
2022-09-06T21:34:07.523Z,100946.34
2022-09-06T21:36:37.292Z,100943.64
2022-09-06T21:39:05.821Z,100941.69
2022-09-06T21:41:36.974Z,100941.02
2022-09-06T21:44:06.910Z,100938.14
2022-09-06T21:46:37.124Z,100936.77
2022-09-06T21:49:08.278Z,100935.44
2022-09-06T21:51:37.898Z,100937.92
2022-09-06T21:54:06.102Z,100941.60
2022-09-06T21:56:36.350Z,100941.23
2022-09-06T21:59:05.689Z,100938.31
2022-09-06T22:01:35.432Z,100934.42
2022-09-06T22:04:04.627Z,100932.88
2022-09-06T22:06:33.554Z,100932.13
2022-09-06T22:09:04.332Z,100929.48
2022-09-06T22:11:33.911Z,100928.23
2022-09-06T22:14:05.842Z,100930.65
2022-09-06T22:16:37.645Z,100931.47
2022-09-06T22:19:06.648Z,100930.48
2022-09-06T22:21:34.896Z,100927.58
2022-09-06T22:24:06.269Z,100927.17
2022-09-06T22:26:36.560Z,100924.33
2022-09-06T22:29:07.279Z,100921.02
2022-09-06T22:31:35.676Z,100924.05
2022-09-06T22:34:04.031Z,100929.63
2022-09-06T22:36:32.112Z,100927.48
2022-09-06T22:39:00.801Z,100922.14
2022-09-06T22:41:31.048Z,100926.40
2022-09-06T22:44:00.417Z,100923.95
2022-09-06T22:46:29.023Z,100925.13
2022-09-06T22:48:57.154Z,100924.06
2022-09-06T22:51:25.048Z,100922.88
2022-09-06T22:53:52.785Z,100926.60
2022-09-06T22:56:21.134Z,100932.96
2022-09-06T22:58:49.815Z,100933.27
2022-09-06T23:01:17.714Z,100935.26
2022-09-06T23:03:46.873Z,100933.50
2022-09-06T23:06:15.058Z,100930.05
2022-09-06T23:08:43.010Z,100924.73
2022-09-06T23:11:16.494Z,100926.42
2022-09-06T23:13:45.823Z,100925.88
2022-09-06T23:16:15.357Z,100926.75
2022-09-06T23:18:45.056Z,100925.36
2022-09-06T23:21:17.029Z,100923.19
2022-09-06T23:23:45.836Z,100923.98
2022-09-06T23:26:19.868Z,100921.46
2022-09-06T23:28:52.032Z,100921.89
2022-09-06T23:31:19.974Z,100919.34
2022-09-06T23:33:52.049Z,100919.39
2022-09-06T23:36:19.784Z,100920.95
2022-09-06T23:38:47.559Z,100914.62
2022-09-06T23:41:15.720Z,100909.10
2022-09-06T23:43:43.867Z,100908.37
2022-09-06T23:46:13.118Z,100908.73
2022-09-06T23:48:41.022Z,100908.49
2022-09-06T23:51:09.330Z,100908.71
2022-09-06T23:53:37.124Z,100905.89
2022-09-06T23:56:05.787Z,100905.72
2022-09-06T23:58:33.848Z,100903.00
